Clifton Springs, New York
Current Conditions -  °F | °C
As of 8:53 AM on Tuesday 27 Jan 2015 (Local Time) from KPEO Reporting Station
Light Snow Light Snow  
Wind Chill:   Ceiling: 1200
Heat Index: 15°   Visibility: 3mi
Dew Point:   Wind: 9mph
Humidity: 77%   Direction: 340°NNW
Pressure: 29.91"   Gusts: NA
Location:  42.96°N, 77.14°W
Report Text: KPEO 271353Z AUTO 34008KT 3SM -SN OVC012 M09/M13 A2991 RMK AO2 SNB1256 SLP148 P0000 T10941128
Loading
Personal Weather Stations






























Interactive Weather Map New forecast layout! Learn more

10-Day Weather Forecast

Advertisements
Track Severe Weather on mobile